Time;durP1;ratioP1;P1;durP2;ratioP2;P2;SDS_P1;SDS_P2;PMS_P1;PMS_P2;Temp;Humidity;BMP_temperature;BMP_pressure;BME280_temperature;BME280_humidity;BME280_pressure;Samples;Min_cycle;Max_cycle;Signal;HPM_P1;HPM_P2
2022/09/12 00:01:06;;;;;;;17.50;13.63;;;;;;;;;;5058617;28;20051;-61
2022/09/12 00:03:32;;;;;;;15.93;12.47;;;;;;;;;;5061707;28;20036;-61
2022/09/12 00:05:59;;;;;;;16.43;12.20;;;;;;;;;;5060506;28;20041;-61
2022/09/12 00:08:25;;;;;;;24.90;16.40;;;;;;;;;;5068969;28;20051;-61
2022/09/12 00:10:51;;;;;;;21.70;15.00;;;;;;;;;;5068106;28;20045;-61
2022/09/12 00:13:17;;;;;;;22.87;15.10;;;;;;;;;;5056914;28;20048;-61
2022/09/12 00:15:43;;;;;;;18.17;12.77;;;;;;;;;;5069899;28;20105;-61
2022/09/12 00:18:12;;;;;;;16.13;12.40;;;;;;;;;;5062153;28;20049;-61
2022/09/12 00:20:42;;;;;;;22.27;15.87;;;;;;;;;;5049364;28;20556;-62
2022/09/12 00:23:08;;;;;;;22.33;14.73;;;;;;;;;;5049312;28;20194;-62
2022/09/12 00:25:34;;;;;;;22.87;13.90;;;;;;;;;;5058369;28;20048;-61
2022/09/12 00:28:00;;;;;;;24.27;16.90;;;;;;;;;;5069274;28;20052;-61
2022/09/12 00:30:26;;;;;;;17.53;14.30;;;;;;;;;;5069942;28;20063;-61
2022/09/12 00:32:53;;;;;;;22.93;16.30;;;;;;;;;;5069104;28;20477;-61
2022/09/12 00:35:19;;;;;;;23.73;14.90;;;;;;;;;;5069328;28;20067;-61
2022/09/12 00:37:45;;;;;;;18.30;13.23;;;;;;;;;;5069537;28;20041;-61
2022/09/12 00:40:11;;;;;;;25.50;18.87;;;;;;;;;;5069335;28;20056;-61
2022/09/12 00:42:37;;;;;;;33.53;22.37;;;;;;;;;;5069127;28;20075;-61
2022/09/12 00:45:04;;;;;;;28.83;20.07;;;;;;;;;;5069411;28;20495;-61
2022/09/12 00:47:31;;;;;;;31.60;20.00;;;;;;;;;;5068571;28;20052;-61
2022/09/12 00:50:04;;;;;;;31.67;20.17;;;;;;;;;;5068817;28;20051;-61
2022/09/12 00:52:36;;;;;;;32.33;21.23;;;;;;;;;;5068981;28;20036;-61
2022/09/12 00:55:02;;;;;;;25.87;18.53;;;;;;;;;;5068967;28;20036;-61
2022/09/12 00:57:34;;;;;;;27.97;20.53;;;;;;;;;;5068877;28;20094;-60
2022/09/12 01:00:17;;;;;;;44.30;23.70;;;;;;;;;;5068673;28;20299;-61
2022/09/12 01:02:45;;;;;;;54.47;28.73;;;;;;;;;;5069196;28;20044;-61
2022/09/12 01:05:11;;;;;;;35.13;23.27;;;;;;;;;;5069284;28;20430;-61
2022/09/12 01:07:38;;;;;;;36.27;23.90;;;;;;;;;;5069082;28;20094;-61
2022/09/12 01:10:06;;;;;;;34.77;24.13;;;;;;;;;;5068761;28;20057;-61
2022/09/12 01:12:32;;;;;;;42.03;26.60;;;;;;;;;;5069107;28;20053;-60
2022/09/12 01:14:58;;;;;;;57.50;32.93;;;;;;;;;;5068422;28;20040;-61
2022/09/12 01:17:28;;;;;;;58.17;36.17;;;;;;;;;;5070788;28;20044;-61
2022/09/12 01:20:03;;;;;;;70.07;40.43;;;;;;;;;;5072625;28;20040;-61
2022/09/12 01:22:45;;;;;;;65.50;37.83;;;;;;;;;;5072711;28;20040;-60
2022/09/12 01:25:12;;;;;;;77.10;42.77;;;;;;;;;;5073208;28;20048;-61
2022/09/12 01:27:53;;;;;;;86.83;46.23;;;;;;;;;;5073321;28;20418;-60
2022/09/12 01:30:19;;;;;;;74.67;43.90;;;;;;;;;;5072046;28;20044;-61
2022/09/12 01:32:45;;;;;;;89.47;47.57;;;;;;;;;;5073147;28;20403;-61
2022/09/12 01:35:15;;;;;;;78.07;45.47;;;;;;;;;;5072683;28;20109;-61
2022/09/12 01:38:00;;;;;;;86.30;49.77;;;;;;;;;;5072819;28;20059;-61
2022/09/12 01:40:26;;;;;;;89.83;51.27;;;;;;;;;;5071980;28;20529;-61
2022/09/12 01:43:03;;;;;;;83.50;46.63;;;;;;;;;;5072490;28;20072;-61
2022/09/12 01:45:35;;;;;;;87.13;47.90;;;;;;;;;;5072899;28;20048;-61
2022/09/12 01:48:21;;;;;;;80.40;46.87;;;;;;;;;;5072788;28;20049;-61
2022/09/12 01:50:57;;;;;;;85.30;46.77;;;;;;;;;;5072423;28;20041;-61
2022/09/12 01:53:25;;;;;;;76.37;43.73;;;;;;;;;;5072059;28;20048;-61
2022/09/12 01:55:55;;;;;;;90.67;47.43;;;;;;;;;;5072235;28;20098;-61
2022/09/12 01:58:44;;;;;;;95.47;46.37;;;;;;;;;;5072250;28;20044;-61
2022/09/12 02:01:15;;;;;;;99.03;50.33;;;;;;;;;;5061618;28;20064;-61
2022/09/12 02:03:43;;;;;;;96.67;47.93;;;;;;;;;;5072290;28;20052;-61
2022/09/12 02:06:14;;;;;;;80.20;43.43;;;;;;;;;;5072241;28;20356;-61
2022/09/12 02:08:48;;;;;;;91.50;45.57;;;;;;;;;;5072221;28;20044;-61
2022/09/12 02:11:14;;;;;;;99.65;47.63;;;;;;;;;;5070702;28;20470;-61
2022/09/12 02:13:43;;;;;;;120.77;54.30;;;;;;;;;;5070764;28;20052;-61
2022/09/12 02:16:10;;;;;;;85.53;45.80;;;;;;;;;;5070403;28;20052;-61
2022/09/12 02:18:43;;;;;;;79.07;42.90;;;;;;;;;;5070621;28;20099;-61
2022/09/12 02:21:09;;;;;;;86.68;45.42;;;;;;;;;;5070850;28;20132;-61
2022/09/12 02:23:38;;;;;;;86.57;46.47;;;;;;;;;;5070511;28;20585;-61
2022/09/12 02:26:06;;;;;;;113.37;52.20;;;;;;;;;;5070294;28;20502;-61
2022/09/12 02:28:34;;;;;;;97.43;48.70;;;;;;;;;;5069580;28;20056;-61
2022/09/12 02:31:22;;;;;;;101.20;48.60;;;;;;;;;;5070501;28;20043;-61
2022/09/12 02:34:01;;;;;;;94.33;47.73;;;;;;;;;;5070673;28;20044;-61
2022/09/12 02:36:48;;;;;;;93.50;47.13;;;;;;;;;;5070711;28;20045;-61
2022/09/12 02:39:18;;;;;;;97.73;48.50;;;;;;;;;;5029616;28;20058;-61
2022/09/12 02:41:45;;;;;;;88.13;46.07;;;;;;;;;;5069897;28;20057;-61
2022/09/12 02:44:11;;;;;;;97.73;48.27;;;;;;;;;;5070541;28;20055;-61
2022/09/12 02:46:42;;;;;;;93.17;46.07;;;;;;;;;;5070447;28;20098;-61
2022/09/12 02:49:08;;;;;;;133.80;55.43;;;;;;;;;;5070546;28;20041;-61
2022/09/12 02:51:34;;;;;;;105.40;49.00;;;;;;;;;;5069515;28;20097;-61
2022/09/12 02:54:01;;;;;;;86.50;45.27;;;;;;;;;;5070055;28;20052;-61
2022/09/12 02:56:29;;;;;;;104.43;48.33;;;;;;;;;;5070021;28;20047;-61
2022/09/12 02:58:57;;;;;;;91.90;47.40;;;;;;;;;;5069649;28;20049;-61
2022/09/12 03:01:35;;;;;;;114.37;51.60;;;;;;;;;;5069501;28;20044;-61
2022/09/12 03:04:01;;;;;;;93.03;48.90;;;;;;;;;;5070165;28;20506;-62
2022/09/12 03:06:37;;;;;;;96.63;48.10;;;;;;;;;;5070301;28;20453;-61
2022/09/12 03:09:03;;;;;;;100.80;48.70;;;;;;;;;;5032176;28;1066590;-61
2022/09/12 03:11:38;;;;;;;95.83;48.73;;;;;;;;;;5070812;28;20056;-61
2022/09/12 03:14:04;;;;;;;97.47;50.50;;;;;;;;;;5071096;28;20049;-61
2022/09/12 03:16:35;;;;;;;165.27;62.77;;;;;;;;;;5070990;28;20056;-61
2022/09/12 03:19:18;;;;;;;105.70;51.00;;;;;;;;;;5069946;28;20066;-61
2022/09/12 03:21:44;;;;;;;95.43;46.58;;;;;;;;;;5070259;28;20051;-61
2022/09/12 03:24:22;;;;;;;85.80;45.10;;;;;;;;;;5070782;28;20396;-61
2022/09/12 03:26:53;;;;;;;104.33;47.80;;;;;;;;;;5070318;28;20091;-61
2022/09/12 03:29:20;;;;;;;116.33;49.50;;;;;;;;;;5070388;28;20633;-61
2022/09/12 03:31:51;;;;;;;125.70;51.93;;;;;;;;;;5070694;28;20048;-61
2022/09/12 03:34:17;;;;;;;110.40;48.30;;;;;;;;;;5069857;28;20044;-61
2022/09/12 03:36:43;;;;;;;119.77;49.63;;;;;;;;;;5070601;28;20051;-61
2022/09/12 03:39:09;;;;;;;99.27;46.23;;;;;;;;;;5070046;28;20049;-61
2022/09/12 03:41:36;;;;;;;106.40;47.60;;;;;;;;;;5069457;28;20056;-61
2022/09/12 03:44:02;;;;;;;132.57;51.77;;;;;;;;;;5069850;28;20201;-61
2022/09/12 03:46:28;;;;;;;188.00;61.77;;;;;;;;;;5070257;28;20040;-61
2022/09/12 03:48:54;;;;;;;193.77;61.80;;;;;;;;;;5070263;28;20388;-61
2022/09/12 03:51:20;;;;;;;100.07;46.20;;;;;;;;;;5070313;28;20130;-61
2022/09/12 03:53:46;;;;;;;87.47;45.80;;;;;;;;;;5069551;28;20061;-61
2022/09/12 03:56:13;;;;;;;96.43;46.50;;;;;;;;;;5070136;28;20521;-61
2022/09/12 03:58:39;;;;;;;89.60;46.03;;;;;;;;;;5069654;28;20037;-61
2022/09/12 04:01:11;;;;;;;117.87;47.00;;;;;;;;;;5070043;28;20480;-61
2022/09/12 04:03:38;;;;;;;115.33;49.27;;;;;;;;;;5069474;28;20044;-61
2022/09/12 04:06:04;;;;;;;169.67;58.53;;;;;;;;;;5070091;28;20044;-61
2022/09/12 04:08:30;;;;;;;129.83;50.80;;;;;;;;;;5069659;28;20400;-61
2022/09/12 04:11:02;;;;;;;112.70;49.57;;;;;;;;;;5069733;28;20127;-61
2022/09/12 04:13:28;;;;;;;122.27;52.40;;;;;;;;;;5069784;28;20438;-61
2022/09/12 04:15:58;;;;;;;105.67;48.70;;;;;;;;;;5068684;28;20399;-61
2022/09/12 04:18:24;;;;;;;114.60;51.00;;;;;;;;;;5068391;28;20037;-61
2022/09/12 04:20:50;;;;;;;97.13;47.83;;;;;;;;;;5068959;28;20410;-61
2022/09/12 04:23:16;;;;;;;121.10;49.73;;;;;;;;;;5069217;28;20040;-61
2022/09/12 04:25:42;;;;;;;153.70;57.00;;;;;;;;;;5069327;28;20044;-61
2022/09/12 04:28:08;;;;;;;122.43;52.37;;;;;;;;;;5069515;28;20106;-61
2022/09/12 04:30:34;;;;;;;151.80;58.27;;;;;;;;;;5069349;28;20127;-61
2022/09/12 04:33:00;;;;;;;141.80;56.97;;;;;;;;;;5069354;28;20048;-62
2022/09/12 04:35:26;;;;;;;137.20;56.90;;;;;;;;;;5069090;28;20093;-61
2022/09/12 04:37:53;;;;;;;141.37;53.93;;;;;;;;;;5069240;28;20405;-61
2022/09/12 04:40:19;;;;;;;145.73;58.83;;;;;;;;;;5069370;28;20041;-61
2022/09/12 04:42:45;;;;;;;128.10;54.53;;;;;;;;;;5069163;28;20048;-61
2022/09/12 04:45:12;;;;;;;135.53;58.87;;;;;;;;;;5069208;28;20123;-61
2022/09/12 04:47:38;;;;;;;123.10;54.97;;;;;;;;;;5068755;28;20495;-61
2022/09/12 04:50:04;;;;;;;172.20;61.13;;;;;;;;;;5068849;28;20049;-61
2022/09/12 04:52:30;;;;;;;122.67;54.07;;;;;;;;;;5068964;28;20044;-61
2022/09/12 04:54:56;;;;;;;132.00;58.47;;;;;;;;;;5068705;28;20562;-62
2022/09/12 04:57:22;;;;;;;131.60;58.00;;;;;;;;;;5068862;28;20135;-61
2022/09/12 04:59:49;;;;;;;135.37;55.73;;;;;;;;;;5068443;28;20459;-61
2022/09/12 05:02:15;;;;;;;146.43;60.83;;;;;;;;;;5069088;28;20110;-61
2022/09/12 05:04:41;;;;;;;152.17;60.47;;;;;;;;;;5069350;28;20109;-61
2022/09/12 05:07:07;;;;;;;145.00;59.80;;;;;;;;;;5068719;28;20063;-61
2022/09/12 05:09:33;;;;;;;147.67;61.17;;;;;;;;;;5068146;28;20149;-61
2022/09/12 05:11:59;;;;;;;127.17;57.83;;;;;;;;;;5068610;28;20141;-61
2022/09/12 05:14:25;;;;;;;150.73;61.20;;;;;;;;;;5067384;28;20052;-61
2022/09/12 05:16:51;;;;;;;153.67;60.70;;;;;;;;;;5068034;28;20049;-61
2022/09/12 05:19:17;;;;;;;145.53;61.07;;;;;;;;;;5067828;28;20379;-61
2022/09/12 05:21:43;;;;;;;141.73;60.73;;;;;;;;;;5068174;28;20044;-61
2022/09/12 05:24:10;;;;;;;135.00;62.43;;;;;;;;;;5067436;28;20048;-61
2022/09/12 05:26:36;;;;;;;159.70;64.23;;;;;;;;;;5068150;28;20045;-61
2022/09/12 05:29:03;;;;;;;145.80;61.97;;;;;;;;;;5067736;28;20046;-61
2022/09/12 05:31:29;;;;;;;159.40;65.93;;;;;;;;;;5067624;28;20114;-61
2022/09/12 05:33:56;;;;;;;148.83;62.83;;;;;;;;;;5068145;28;20474;-61
2022/09/12 05:36:26;;;;;;;138.00;62.00;;;;;;;;;;5067693;28;20044;-61
2022/09/12 05:38:52;;;;;;;132.43;60.93;;;;;;;;;;5067150;28;20402;-61
2022/09/12 05:41:26;;;;;;;192.40;71.20;;;;;;;;;;5068100;28;20049;-61
2022/09/12 05:43:55;;;;;;;203.65;77.30;;;;;;;;;;5067854;28;20056;-61
2022/09/12 05:46:24;;;;;;;244.23;92.37;;;;;;;;;;5067634;28;20560;-61
2022/09/12 05:48:51;;;;;;;166.37;82.97;;;;;;;;;;5066947;28;20060;-61
2022/09/12 05:51:22;;;;;;;264.67;115.43;;;;;;;;;;5067813;28;20499;-62
2022/09/12 05:53:52;;;;;;;144.90;75.73;;;;;;;;;;5067783;28;20424;-61
2022/09/12 05:56:19;;;;;;;232.47;102.80;;;;;;;;;;5047599;28;20048;-62
2022/09/12 05:58:47;;;;;;;204.70;97.37;;;;;;;;;;5047617;28;20049;-62
2022/09/12 06:01:14;;;;;;;157.17;79.30;;;;;;;;;;5047244;28;20053;-62
2022/09/12 06:03:43;;;;;;;154.03;73.17;;;;;;;;;;5058697;28;20048;-61
2022/09/12 06:06:12;;;;;;;150.03;69.83;;;;;;;;;;5070583;28;20094;-62
2022/09/12 06:08:39;;;;;;;125.07;58.67;;;;;;;;;;5071467;28;20127;-61
2022/09/12 06:11:05;;;;;;;126.93;60.97;;;;;;;;;;5071056;28;20750;-61
2022/09/12 06:13:33;;;;;;;118.13;55.60;;;;;;;;;;5071197;28;20048;-61
2022/09/12 06:16:05;;;;;;;113.33;54.60;;;;;;;;;;5070586;28;20050;-61
2022/09/12 06:18:32;;;;;;;117.70;54.60;;;;;;;;;;5070779;28;20494;-61
2022/09/12 06:21:01;;;;;;;135.97;57.00;;;;;;;;;;5070966;28;20049;-61
2022/09/12 06:23:27;;;;;;;109.37;54.00;;;;;;;;;;5070849;28;20041;-61
2022/09/12 06:25:54;;;;;;;112.10;53.93;;;;;;;;;;5070481;28;20572;-61
2022/09/12 06:28:20;;;;;;;124.90;56.07;;;;;;;;;;5070948;28;20048;-61
2022/09/12 06:30:46;;;;;;;127.23;57.20;;;;;;;;;;5070581;28;20209;-61
2022/09/12 06:33:12;;;;;;;119.50;55.87;;;;;;;;;;5069740;28;20048;-61
2022/09/12 06:35:38;;;;;;;118.07;53.30;;;;;;;;;;5069863;28;20102;-61
2022/09/12 06:38:04;;;;;;;112.90;53.77;;;;;;;;;;5070485;28;20438;-61
2022/09/12 06:40:30;;;;;;;121.77;53.77;;;;;;;;;;5070440;28;20044;-62
2022/09/12 06:42:56;;;;;;;125.57;54.97;;;;;;;;;;5070972;28;20044;-62
2022/09/12 06:45:23;;;;;;;106.37;50.80;;;;;;;;;;5070634;28;20045;-61
2022/09/12 06:47:49;;;;;;;110.43;51.07;;;;;;;;;;5069249;28;20438;-61
2022/09/12 06:50:15;;;;;;;104.07;51.13;;;;;;;;;;5070328;28;20139;-61
2022/09/12 06:52:41;;;;;;;114.27;54.30;;;;;;;;;;5070851;28;20064;-62
2022/09/12 06:55:07;;;;;;;107.23;50.03;;;;;;;;;;5070308;28;20469;-61
2022/09/12 06:57:35;;;;;;;91.03;46.27;;;;;;;;;;5069635;28;20094;-62
2022/09/12 07:00:04;;;;;;;92.00;48.07;;;;;;;;;;5070455;28;20059;-61
2022/09/12 07:02:31;;;;;;;96.40;48.07;;;;;;;;;;5070524;28;20068;-62
2022/09/12 07:04:57;;;;;;;84.87;44.47;;;;;;;;;;5070241;28;20434;-61
2022/09/12 07:07:23;;;;;;;87.70;45.53;;;;;;;;;;5070163;28;20147;-61
2022/09/12 07:09:49;;;;;;;81.80;44.03;;;;;;;;;;5057131;28;20128;-62
2022/09/12 07:12:15;;;;;;;88.90;44.83;;;;;;;;;;5050366;28;20064;-61
2022/09/12 07:14:41;;;;;;;86.43;43.70;;;;;;;;;;5048940;28;20045;-61
2022/09/12 07:17:07;;;;;;;71.87;41.53;;;;;;;;;;5054396;28;20098;-61
2022/09/12 07:19:34;;;;;;;79.37;43.63;;;;;;;;;;5066989;28;20041;-61
2022/09/12 07:22:00;;;;;;;83.90;44.63;;;;;;;;;;5078856;28;20430;-61
2022/09/12 07:24:26;;;;;;;75.57;42.43;;;;;;;;;;5068073;28;20414;-62
2022/09/12 07:26:52;;;;;;;77.33;42.53;;;;;;;;;;5069364;28;20052;-62
2022/09/12 07:29:18;;;;;;;67.37;40.30;;;;;;;;;;5067628;28;20044;-62
2022/09/12 07:31:44;;;;;;;70.17;40.70;;;;;;;;;;5068688;28;20044;-62
2022/09/12 07:34:10;;;;;;;72.20;40.43;;;;;;;;;;5069104;28;20048;-61
2022/09/12 07:36:36;;;;;;;72.03;41.93;;;;;;;;;;5068679;28;20072;-62
2022/09/12 07:39:03;;;;;;;61.00;36.13;;;;;;;;;;5067608;28;20036;-61
2022/09/12 07:41:30;;;;;;;63.13;37.83;;;;;;;;;;5067858;28;20506;-62
2022/09/12 07:43:57;;;;;;;63.17;37.07;;;;;;;;;;5069526;28;20041;-61
2022/09/12 07:46:24;;;;;;;57.30;37.40;;;;;;;;;;5067919;28;20052;-61
2022/09/12 07:48:51;;;;;;;59.00;35.70;;;;;;;;;;5069388;28;20055;-61
2022/09/12 07:51:17;;;;;;;59.20;35.23;;;;;;;;;;5069855;28;20154;-61
2022/09/12 07:53:43;;;;;;;55.97;35.77;;;;;;;;;;5067389;28;20871;-61
2022/09/12 07:56:10;;;;;;;52.43;33.67;;;;;;;;;;5068215;28;20052;-61
2022/09/12 07:58:37;;;;;;;57.50;35.63;;;;;;;;;;5068205;28;20495;-61
2022/09/12 08:01:11;;;;;;;52.43;34.97;;;;;;;;;;5067368;28;20063;-61
2022/09/12 08:03:38;;;;;;;52.50;34.63;;;;;;;;;;5070162;28;20047;-61
2022/09/12 08:06:04;;;;;;;50.10;33.73;;;;;;;;;;5070479;28;20059;-61
2022/09/12 08:08:30;;;;;;;44.60;30.87;;;;;;;;;;5067680;28;20038;-61
2022/09/12 08:10:57;;;;;;;53.90;34.73;;;;;;;;;;5067113;28;20102;-61
2022/09/12 08:13:24;;;;;;;49.80;33.93;;;;;;;;;;5067735;28;20059;-61
2022/09/12 08:15:50;;;;;;;51.27;33.23;;;;;;;;;;5068195;28;20048;-61
2022/09/12 08:18:16;;;;;;;48.57;33.77;;;;;;;;;;5067335;28;20409;-61
2022/09/12 08:20:42;;;;;;;48.47;32.17;;;;;;;;;;5067782;28;20052;-61
2022/09/12 08:23:08;;;;;;;47.97;31.30;;;;;;;;;;5067157;28;20043;-61
2022/09/12 08:25:34;;;;;;;46.53;32.20;;;;;;;;;;5068277;28;20094;-61
2022/09/12 08:28:00;;;;;;;45.43;32.53;;;;;;;;;;5066965;28;20048;-61
2022/09/12 08:30:26;;;;;;;50.20;32.90;;;;;;;;;;5066475;28;20482;-61
2022/09/12 08:32:52;;;;;;;45.63;30.83;;;;;;;;;;5066904;28;20139;-61
2022/09/12 08:35:18;;;;;;;43.33;29.93;;;;;;;;;;5068570;28;20179;-61
2022/09/12 08:37:44;;;;;;;45.07;30.53;;;;;;;;;;5068492;28;20395;-61
2022/09/12 08:40:15;;;;;;;51.80;32.63;;;;;;;;;;5068889;28;20048;-62
2022/09/12 08:42:49;;;;;;;41.00;28.83;;;;;;;;;;5069047;28;20383;-61
2022/09/12 08:45:22;;;;;;;43.10;30.37;;;;;;;;;;5067467;28;20345;-62
2022/09/12 08:47:48;;;;;;;41.95;29.33;;;;;;;;;;5068703;28;20386;-61
2022/09/12 08:50:17;;;;;;;38.07;26.47;;;;;;;;;;5068158;28;20384;-62
2022/09/12 08:52:52;;;;;;;39.93;28.50;;;;;;;;;;5068314;28;20048;-61
2022/09/12 08:55:30;;;;;;;33.87;24.53;;;;;;;;;;5068625;28;20048;-62
2022/09/12 08:57:59;;;;;;;38.93;27.27;;;;;;;;;;5068177;28;20049;-61
2022/09/12 09:00:28;;;;;;;37.30;27.67;;;;;;;;;;5063871;28;20628;-61
2022/09/12 09:03:00;;;;;;;35.07;26.70;;;;;;;;;;5075917;28;20057;-61
2022/09/12 09:05:46;;;;;;;36.13;27.03;;;;;;;;;;5066305;28;20048;-61
2022/09/12 09:08:21;;;;;;;31.13;23.70;;;;;;;;;;5067736;28;20448;-61
2022/09/12 09:10:51;;;;;;;34.90;24.40;;;;;;;;;;5067767;28;20414;-61
2022/09/12 09:14:46;;;;;;;31.47;24.67;;;;;;;;;;5066687;28;20088;-61
2022/09/12 09:16:09;;;;;;;35.53;23.60;;;;;;;;;;5067046;28;20049;-61
2022/09/12 09:18:35;;;;;;;32.67;25.00;;;;;;;;;;5067131;28;20123;-61
2022/09/12 09:21:03;;;;;;;27.97;23.27;;;;;;;;;;5067159;28;20479;-61
2022/09/12 09:23:30;;;;;;;30.83;23.53;;;;;;;;;;5067459;28;20048;-61
2022/09/12 09:26:01;;;;;;;28.90;22.10;;;;;;;;;;5067182;28;20101;-61
2022/09/12 09:28:30;;;;;;;33.57;22.83;;;;;;;;;;5067172;28;20087;-61
2022/09/12 09:30:56;;;;;;;36.63;24.30;;;;;;;;;;5067135;28;20048;-61
2022/09/12 09:33:24;;;;;;;34.47;23.87;;;;;;;;;;5065605;28;20036;-61
2022/09/12 09:36:01;;;;;;;30.00;22.67;;;;;;;;;;5066744;28;20052;-61
2022/09/12 09:38:27;;;;;;;29.27;22.13;;;;;;;;;;5068864;28;20044;-61
2022/09/12 09:41:16;;;;;;;28.90;21.43;;;;;;;;;;5070996;28;20051;-61
2022/09/12 09:43:42;;;;;;;30.60;22.00;;;;;;;;;;5061098;28;20121;-62
2022/09/12 09:46:09;;;;;;;28.77;23.00;;;;;;;;;;5071508;28;20151;-61
2022/09/12 09:48:36;;;;;;;28.27;22.07;;;;;;;;;;5071750;28;20048;-61
2022/09/12 09:51:05;;;;;;;29.77;21.60;;;;;;;;;;5071693;28;20056;-61
2022/09/12 09:53:31;;;;;;;29.23;21.67;;;;;;;;;;5071067;28;20054;-62
2022/09/12 09:56:00;;;;;;;27.93;21.60;;;;;;;;;;5070620;28;20445;-61
2022/09/12 09:58:33;;;;;;;24.87;21.87;;;;;;;;;;5071020;28;20052;-62
2022/09/12 10:01:19;;;;;;;31.05;22.38;;;;;;;;;;5071275;28;20056;-61
2022/09/12 10:03:50;;;;;;;29.33;22.63;;;;;;;;;;5071678;28;20064;-61
2022/09/12 10:06:19;;;;;;;29.43;22.10;;;;;;;;;;5071169;28;20472;-61
2022/09/12 10:08:46;;;;;;;28.48;22.13;;;;;;;;;;5071344;28;20052;-62
2022/09/12 10:11:12;;;;;;;29.30;22.08;;;;;;;;;;5071219;28;20057;-62
2022/09/12 10:13:38;;;;;;;31.13;21.52;;;;;;;;;;5070690;28;20414;-61
2022/09/12 10:16:06;;;;;;;26.08;21.02;;;;;;;;;;5065051;28;20127;-61
2022/09/12 10:18:33;;;;;;;21.98;18.50;;;;;;;;;;5069383;28;20143;-62
2022/09/12 10:21:00;;;;;;;25.80;19.25;;;;;;;;;;5070268;28;20049;-61
2022/09/12 10:23:28;;;;;;;24.13;20.10;;;;;;;;;;5070260;28;20094;-61
2022/09/12 10:25:56;;;;;;;24.52;19.83;;;;;;;;;;5069400;28;20044;-62
2022/09/12 10:28:31;;;;;;;23.63;20.05;;;;;;;;;;5070693;28;20565;-62
2022/09/12 10:30:58;;;;;;;25.50;18.90;;;;;;;;;;5070661;28;20052;-61
2022/09/12 10:33:25;;;;;;;21.70;18.67;;;;;;;;;;5069962;28;20521;-61
2022/09/12 10:35:52;;;;;;;19.92;17.20;;;;;;;;;;5070777;28;20048;-61
2022/09/12 10:38:24;;;;;;;22.17;17.02;;;;;;;;;;5071095;28;20049;-61
2022/09/12 10:41:16;;;;;;;24.02;19.38;;;;;;;;;;5071033;28;20052;-61
2022/09/12 10:43:42;;;;;;;22.20;18.67;;;;;;;;;;5068093;28;20056;-61
2022/09/12 10:46:15;;;;;;;23.58;18.23;;;;;;;;;;5069722;28;20456;-62
2022/09/12 10:48:41;;;;;;;25.88;20.40;;;;;;;;;;5069971;28;20110;-61
2022/09/12 10:51:26;;;;;;;21.40;18.77;;;;;;;;;;5070259;28;20052;-62
2022/09/12 10:53:54;;;;;;;23.65;18.13;;;;;;;;;;5069554;28;20447;-62
2022/09/12 10:56:22;;;;;;;19.55;15.35;;;;;;;;;;5049727;28;20053;-61
2022/09/12 10:59:02;;;;;;;18.95;15.90;;;;;;;;;;5050255;28;20052;-61
2022/09/12 11:01:36;;;;;;;20.58;15.13;;;;;;;;;;5050100;28;20060;-61
2022/09/12 11:04:08;;;;;;;20.38;17.23;;;;;;;;;;5049098;28;20080;-61
2022/09/12 11:06:53;;;;;;;19.63;17.52;;;;;;;;;;5050552;28;20470;-62
2022/09/12 11:09:43;;;;;;;17.65;13.93;;;;;;;;;;5049508;28;20061;-62
2022/09/12 11:12:15;;;;;;;16.88;13.45;;;;;;;;;;5027319;28;20051;-61
2022/09/12 11:15:00;;;;;;;20.65;15.02;;;;;;;;;;5070034;28;20562;-61
2022/09/12 11:17:35;;;;;;;15.68;12.80;;;;;;;;;;5069243;28;20494;-61
2022/09/12 11:20:13;;;;;;;16.88;13.40;;;;;;;;;;5068827;28;20494;-61
2022/09/12 11:22:58;;;;;;;15.80;12.73;;;;;;;;;;5069777;28;20055;-62
2022/09/12 11:25:27;;;;;;;16.63;13.02;;;;;;;;;;5068329;28;20495;-62
2022/09/12 11:28:12;;;;;;;15.43;11.15;;;;;;;;;;5069632;28;20072;-62
2022/09/12 11:31:01;;;;;;;17.55;12.82;;;;;;;;;;5050177;28;20079;-62
2022/09/12 11:33:37;;;;;;;12.85;11.05;;;;;;;;;;5020908;28;20053;-59
2022/09/12 11:36:07;;;;;;;12.07;8.98;;;;;;;;;;5049357;28;20491;-59
2022/09/12 11:38:49;;;;;;;9.30;7.25;;;;;;;;;;5049432;28;20075;-60
2022/09/12 11:41:35;;;;;;;10.02;8.65;;;;;;;;;;5050207;28;20052;-59
2022/09/12 11:44:22;;;;;;;11.45;9.30;;;;;;;;;;5049805;28;20072;-59
2022/09/12 11:46:48;;;;;;;10.40;8.95;;;;;;;;;;5049698;28;20094;-59
2022/09/12 11:49:21;;;;;;;9.95;8.65;;;;;;;;;;5049277;28;20041;-60
2022/09/12 11:51:53;;;;;;;11.52;9.05;;;;;;;;;;5049147;28;20136;-60
2022/09/12 11:54:38;;;;;;;11.48;8.63;;;;;;;;;;5053467;28;20036;-60
2022/09/12 11:57:16;;;;;;;10.35;8.90;;;;;;;;;;5069388;28;20098;-60
2022/09/12 12:00:01;;;;;;;11.68;8.38;;;;;;;;;;5068600;28;20060;-60
2022/09/12 12:02:28;;;;;;;13.30;9.13;;;;;;;;;;5068845;28;20057;-60
2022/09/12 12:05:17;;;;;;;9.93;8.88;;;;;;;;;;5069255;28;20036;-60
2022/09/12 12:07:50;;;;;;;9.15;7.32;;;;;;;;;;5068221;28;20055;-60
2022/09/12 12:10:25;;;;;;;6.13;4.97;;;;;;;;;;5068987;28;20052;-60
2022/09/12 12:12:52;;;;;;;7.63;6.32;;;;;;;;;;5069182;28;20079;-60
2022/09/12 12:15:19;;;;;;;6.72;6.03;;;;;;;;;;5068966;28;20098;-60
2022/09/12 12:17:59;;;;;;;6.97;5.22;;;;;;;;;;5068404;28;20037;-60
2022/09/12 12:20:27;;;;;;;7.78;6.55;;;;;;;;;;5068680;28;20048;-60
2022/09/12 12:22:54;;;;;;;7.63;6.03;;;;;;;;;;5068978;28;20047;-60
2022/09/12 12:25:20;;;;;;;7.45;6.53;;;;;;;;;;5069224;28;20098;-60
2022/09/12 12:27:49;;;;;;;9.30;7.28;;;;;;;;;;5068477;28;20096;-60
2022/09/12 12:30:30;;;;;;;10.10;7.72;;;;;;;;;;5068431;28;20102;-60
2022/09/12 12:33:09;;;;;;;8.85;7.70;;;;;;;;;;5068758;28;20128;-60
2022/09/12 12:35:39;;;;;;;9.45;8.02;;;;;;;;;;5068659;28;20135;-60
2022/09/12 12:38:24;;;;;;;9.80;8.35;;;;;;;;;;5068496;28;20182;-60
2022/09/12 12:40:51;;;;;;;9.00;8.10;;;;;;;;;;5068703;28;20052;-60
2022/09/12 12:43:33;;;;;;;9.93;8.35;;;;;;;;;;5068442;28;20041;-60
2022/09/12 12:45:59;;;;;;;;;;;;;;;;;;5069212;28;20040;-60
2022/09/12 12:48:25;;;;;;;11.45;7.85;;;;;;;;;;5068066;28;19973;-60
2022/09/12 12:50:51;;;;;;;9.02;8.00;;;;;;;;;;5068793;28;20118;-60
2022/09/12 12:53:24;;;;;;;8.60;7.43;;;;;;;;;;5068510;28;20047;-60
2022/09/12 12:55:51;;;;;;;9.35;6.88;;;;;;;;;;5068692;28;20070;-60
2022/09/12 12:58:37;;;;;;;7.15;6.20;;;;;;;;;;5067736;28;20045;-60
2022/09/12 13:01:08;;;;;;;9.27;6.25;;;;;;;;;;5068610;28;20052;-60
2022/09/12 13:03:35;;;;;;;7.57;6.35;;;;;;;;;;5068372;28;20491;-60
2022/09/12 13:06:02;;;;;;;8.52;6.03;;;;;;;;;;5068027;28;20056;-60
2022/09/12 13:08:30;;;;;;;5.95;5.25;;;;;;;;;;5068244;28;20457;-60
2022/09/12 13:11:06;;;;;;;5.65;4.18;;;;;;;;;;5068160;28;20527;-60
2022/09/12 13:13:39;;;;;;;7.05;5.43;;;;;;;;;;5071367;28;20414;-60
2022/09/12 13:16:06;;;;;;;7.22;4.07;;;;;;;;;;5070707;28;20040;-60
2022/09/12 13:18:41;;;;;;;5.20;4.30;;;;;;;;;;5061305;28;20483;-61
2022/09/12 13:21:09;;;;;;;7.20;5.47;;;;;;;;;;5072852;28;20048;-61
2022/09/12 13:23:35;;;;;;;6.00;5.28;;;;;;;;;;5072621;28;20041;-61
2022/09/12 13:26:02;;;;;;;6.53;5.45;;;;;;;;;;5071044;28;20093;-61
2022/09/12 13:28:29;;;;;;;6.32;4.70;;;;;;;;;;5071979;28;20087;-61
2022/09/12 13:31:15;;;;;;;5.85;4.18;;;;;;;;;;5072169;28;20040;-61
2022/09/12 13:33:43;;;;;;;6.90;4.20;;;;;;;;;;5071773;28;20063;-60
2022/09/12 13:36:25;;;;;;;7.20;5.32;;;;;;;;;;5071772;28;20048;-61
2022/09/12 13:39:01;;;;;;;5.07;4.50;;;;;;;;;;5071883;28;20125;-60
2022/09/12 13:41:36;;;;;;;7.60;5.38;;;;;;;;;;5071306;28;20052;-60
2022/09/12 13:44:03;;;;;;;7.78;6.15;;;;;;;;;;5071721;28;20048;-60
2022/09/12 13:46:33;;;;;;;6.68;5.68;;;;;;;;;;5071857;28;20040;-60
2022/09/12 13:49:00;;;;;;;6.43;3.88;;;;;;;;;;5071708;28;20047;-60
2022/09/12 13:51:28;;;;;;;6.00;5.18;;;;;;;;;;5070755;28;20033;-60
2022/09/12 13:53:57;;;;;;;5.70;5.03;;;;;;;;;;5066749;28;20044;-60
2022/09/12 13:56:23;;;;;;;7.63;4.50;;;;;;;;;;5067352;28;20477;-60
2022/09/12 13:58:59;;;;;;;8.55;4.63;;;;;;;;;;5077425;28;20083;-60
2022/09/12 14:01:58;;;;;;;5.03;4.53;;;;;;;;;;5071020;28;20048;-60
2022/09/12 14:07:10;;;;;;;4.32;3.28;;;;;;;;;;5070037;28;20439;-60
2022/09/12 14:09:40;;;;;;;6.45;3.75;;;;;;;;;;5059781;28;20490;-60
2022/09/12 14:12:19;;;;;;;4.72;2.90;;;;;;;;;;5069045;28;20102;-61
2022/09/12 14:14:48;;;;;;;4.30;2.40;;;;;;;;;;5055900;28;20110;-60
2022/09/12 14:17:16;;;;;;;5.18;2.53;;;;;;;;;;5070520;28;20044;-60
2022/09/12 14:19:42;;;;;;;4.20;3.05;;;;;;;;;;5057552;28;20119;-60
2022/09/12 14:22:15;;;;;;;5.88;3.25;;;;;;;;;;5051867;28;20057;-60
2022/09/12 14:24:42;;;;;;;4.38;2.83;;;;;;;;;;5070790;28;20056;-62
2022/09/12 14:27:09;;;;;;;5.15;3.47;;;;;;;;;;5071574;28;20037;-60
2022/09/12 14:29:36;;;;;;;5.72;3.25;;;;;;;;;;5070981;28;20048;-61
2022/09/12 14:32:03;;;;;;;5.13;3.00;;;;;;;;;;5071185;28;20076;-60
2022/09/12 14:34:29;;;;;;;3.63;2.65;;;;;;;;;;5069149;28;20048;-60
2022/09/12 14:36:56;;;;;;;6.05;3.47;;;;;;;;;;5051287;28;20126;-60